Time;durP1;ratioP1;P1;durP2;ratioP2;P2;SDS_P1;SDS_P2;PMS_P1;PMS_P2;Temp;Humidity;BMP_temperature;BMP_pressure;BME280_temperature;BME280_humidity;BME280_pressure;Samples;Min_cycle;Max_cycle;Signal;HPM_P1;HPM_P2
2021/07/06 00:01:06;;;;;;;8.90;7.47;;;;;;;-140.79;100.00;63287.88;4786113;30;20804;-80
2021/07/06 00:03:32;;;;;;;8.23;6.43;;;;;;;-140.79;100.00;63287.88;4785804;29;20059;-80
2021/07/06 00:05:57;;;;;;;6.28;5.60;;;;;;;-140.79;100.00;63287.88;4769647;30;20446;-79
2021/07/06 00:08:22;;;;;;;6.43;5.63;;;;;;;-140.79;100.00;63287.88;4769012;30;20027;-80
2021/07/06 00:10:48;;;;;;;9.35;5.40;;;;;;;-140.79;100.00;63287.88;4785408;30;20042;-80
2021/07/06 00:13:14;;;;;;;8.73;6.57;;;;;;;-140.79;100.00;63287.88;4784813;30;20035;-80
2021/07/06 00:15:39;;;;;;;7.90;5.88;;;;;;;-140.79;100.00;63287.88;4784478;30;20031;-80
2021/07/06 00:18:05;;;;;;;9.35;7.70;;;;;;;-140.79;100.00;63287.88;4786341;30;20070;-80
2021/07/06 00:20:30;;;;;;;8.57;6.47;;;;;;;-140.79;100.00;63287.88;4786079;30;20099;-79
2021/07/06 00:22:57;;;;;;;9.40;6.35;;;;;;;-140.79;100.00;63287.88;4786313;30;20519;-80
2021/07/06 00:25:23;;;;;;;7.68;5.90;;;;;;;-140.79;100.00;63287.88;4785167;30;20043;-80
2021/07/06 00:27:49;;;;;;;7.28;6.07;;;;;;;-140.79;100.00;63287.88;4755578;30;20050;-80
2021/07/06 00:30:15;;;;;;;5.32;4.70;;;;;;;-140.79;100.00;63287.88;4768960;30;20430;-80
2021/07/06 00:32:40;;;;;;;7.20;4.88;;;;;;;-140.79;100.00;63287.88;4785460;30;20039;-79
2021/07/06 00:35:06;;;;;;;7.47;4.70;;;;;;;-140.79;100.00;63287.88;4767865;30;20039;-80
2021/07/06 00:37:32;;;;;;;5.53;4.65;;;;;;;-140.79;100.00;63287.88;4785855;30;20038;-80
2021/07/06 00:39:58;;;;;;;6.78;4.50;;;;;;;-140.79;100.00;63287.88;4768493;30;20574;-80
2021/07/06 00:42:23;;;;;;;5.20;4.30;;;;;;;-140.79;100.00;63287.88;4769998;30;20043;-80
2021/07/06 00:44:49;;;;;;;5.55;4.00;;;;;;;-140.79;100.00;63287.88;4767972;30;20518;-80
2021/07/06 00:47:14;;;;;;;4.68;3.88;;;;;;;-140.79;100.00;63287.88;4768871;30;20092;-81
2021/07/06 00:49:40;;;;;;;6.85;4.30;;;;;;;-140.79;100.00;63287.88;4753508;30;20097;-80
2021/07/06 00:52:06;;;;;;;4.90;4.03;;;;;;;-140.79;100.00;63287.88;4754609;30;20035;-79
2021/07/06 00:54:31;;;;;;;5.38;4.30;;;;;;;-140.79;100.00;63287.88;4785078;30;20122;-79
2021/07/06 00:56:58;;;;;;;6.72;4.50;;;;;;;-140.79;100.00;63287.88;4769157;30;20050;-79
2021/07/06 00:59:23;;;;;;;5.15;4.53;;;;;;;-140.79;100.00;63287.88;4768540;30;20430;-79
2021/07/06 01:01:49;;;;;;;5.50;3.95;;;;;;;-140.79;100.00;63287.88;4768704;30;20039;-81
2021/07/06 01:04:14;;;;;;;4.57;3.95;;;;;;;-140.79;100.00;63287.88;4785095;29;20082;-80
2021/07/06 01:06:41;;;;;;;5.72;3.72;;;;;;;-140.79;100.00;63287.88;4784574;30;20063;-80
2021/07/06 01:09:06;;;;;;;6.20;4.18;;;;;;;-140.79;100.00;63287.88;4768776;30;20591;-79
2021/07/06 01:11:34;;;;;;;4.05;3.47;;;;;;;-140.79;100.00;63287.88;4768918;30;20031;-81
2021/07/06 01:14:00;;;;;;;6.25;4.32;;;;;;;-140.79;100.00;63287.88;4765691;30;20488;-80
2021/07/06 01:16:25;;;;;;;5.72;3.90;;;;;;;-140.79;100.00;63287.88;4784299;30;20039;-79
2021/07/06 01:18:51;;;;;;;5.38;3.40;;;;;;;-140.79;100.00;63287.88;4768262;30;20047;-81
2021/07/06 01:21:16;;;;;;;5.28;3.67;;;;;;;-140.79;100.00;63287.88;4785202;30;20472;-79
2021/07/06 01:23:42;;;;;;;5.15;3.88;;;;;;;-140.79;100.00;63287.88;4783353;29;20032;-79
2021/07/06 01:26:08;;;;;;;5.10;3.53;;;;;;;-140.79;100.00;63287.88;4784500;30;20123;-80
2021/07/06 01:28:34;;;;;;;6.45;4.10;;;;;;;-140.79;100.00;63287.88;4767964;30;20038;-80
2021/07/06 01:30:59;;;;;;;6.00;3.63;;;;;;;-140.79;100.00;63287.88;4768647;30;20043;-81
2021/07/06 01:33:27;;;;;;;7.20;4.10;;;;;;;-140.79;100.00;63287.88;4784590;30;20033;-80
2021/07/06 01:35:54;;;;;;;5.15;3.97;;;;;;;-140.79;100.00;63287.88;4766629;30;20120;-79
2021/07/06 01:38:19;;;;;;;5.05;3.80;;;;;;;-140.79;100.00;63287.88;4752514;30;20046;-79
2021/07/06 01:40:45;;;;;;;6.90;4.43;;;;;;;-140.79;100.00;63287.88;4751747;30;20031;-80
2021/07/06 01:43:10;;;;;;;5.22;3.95;;;;;;;-140.79;100.00;63287.88;4767801;30;20023;-80
2021/07/06 01:45:36;;;;;;;6.43;4.00;;;;;;;-140.79;100.00;63287.88;4782774;30;20027;-80
2021/07/06 01:48:02;;;;;;;5.93;4.18;;;;;;;-140.79;100.00;63287.88;4784643;30;20092;-80
2021/07/06 01:50:32;;;;;;;6.15;4.57;;;;;;;-140.79;100.00;63287.88;4784930;30;20059;-80
2021/07/06 01:52:59;;;;;;;5.03;4.20;;;;;;;-140.79;100.00;63287.88;4767700;30;20096;-80
2021/07/06 01:55:29;;;;;;;5.13;4.05;;;;;;;-140.79;100.00;63287.88;4768339;30;20027;-79
2021/07/06 01:57:56;;;;;;;5.25;3.85;;;;;;;-140.79;100.00;63287.88;4767921;30;20066;-79
2021/07/06 02:00:23;;;;;;;7.13;4.70;;;;;;;-140.79;100.00;63287.88;4784976;30;20047;-80
2021/07/06 02:02:49;;;;;;;5.15;4.18;;;;;;;-140.79;100.00;63287.88;4784291;29;20063;-80
2021/07/06 02:05:18;;;;;;;7.63;4.60;;;;;;;-140.79;100.00;63287.88;4784621;30;20035;-81
2021/07/06 02:07:44;;;;;;;6.05;3.92;;;;;;;-140.79;100.00;63287.88;4780217;29;20498;-80
2021/07/06 02:10:10;;;;;;;5.90;4.35;;;;;;;-140.79;100.00;63287.88;4784722;29;20117;-79
2021/07/06 02:12:36;;;;;;;6.53;4.18;;;;;;;-140.79;100.00;63287.88;4785076;30;20035;-80
2021/07/06 02:15:06;;;;;;;5.25;4.32;;;;;;;-140.79;100.00;63287.88;4785367;30;20027;-81
2021/07/06 02:17:31;;;;;;;;;;;;;;;-140.79;100.00;63287.88;4784978;30;20031;-80
2021/07/06 02:19:57;;;;;;;5.55;4.40;;;;;;;-140.79;100.00;63287.88;4783904;30;20338;-80
2021/07/06 02:22:22;;;;;;;6.72;5.10;;;;;;;-140.79;100.00;63287.88;4784569;30;20039;-80
2021/07/06 02:24:48;;;;;;;6.65;4.65;;;;;;;-140.79;100.00;63287.88;4782771;30;20050;-80
2021/07/06 02:27:13;;;;;;;6.47;4.43;;;;;;;-140.79;100.00;63287.88;4784104;30;20027;-80
2021/07/06 02:29:39;;;;;;;5.93;4.80;;;;;;;-140.79;100.00;63287.88;4782936;29;20027;-80
2021/07/06 02:32:04;;;;;;;6.85;4.78;;;;;;;-140.79;100.00;63287.88;4770883;30;20031;-80
2021/07/06 02:34:30;;;;;;;7.38;5.22;;;;;;;-140.79;100.00;63287.88;4785901;30;20564;-79
2021/07/06 02:36:56;;;;;;;5.65;4.10;;;;;;;-140.79;100.00;63287.88;4787453;30;20053;-80
2021/07/06 02:39:22;;;;;;;5.47;4.30;;;;;;;-140.79;100.00;63287.88;4786328;30;20058;-81
2021/07/06 02:41:48;;;;;;;7.00;4.53;;;;;;;-140.79;100.00;63287.88;4787255;30;20059;-79
2021/07/06 02:44:13;;;;;;;5.20;4.32;;;;;;;-140.79;100.00;63287.88;4788160;30;20486;-80
2021/07/06 02:46:39;;;;;;;6.32;4.30;;;;;;;-140.79;100.00;63287.88;4786945;30;20105;-79
2021/07/06 02:49:04;;;;;;;5.22;4.30;;;;;;;-140.79;100.00;63287.88;4784415;29;20030;-80
2021/07/06 02:51:30;;;;;;;6.82;4.43;;;;;;;-140.79;100.00;63287.88;4785691;30;20031;-80
2021/07/06 02:53:55;;;;;;;6.95;4.47;;;;;;;-140.79;100.00;63287.88;4786923;30;20027;-80
2021/07/06 02:56:21;;;;;;;7.10;4.57;;;;;;;-140.79;100.00;63287.88;4786665;30;20035;-79
2021/07/06 02:58:46;;;;;;;8.55;4.57;;;;;;;-140.79;100.00;63287.88;4788434;30;20027;-79
2021/07/06 03:01:12;;;;;;;5.90;4.72;;;;;;;-140.79;100.00;63287.88;4770194;30;20035;-79
2021/07/06 03:03:38;;;;;;;6.47;4.53;;;;;;;-140.79;100.00;63287.88;4788203;29;20055;-81
2021/07/06 03:06:03;;;;;;;7.60;4.82;;;;;;;-140.79;100.00;63287.88;4800513;30;20065;-80
2021/07/06 03:08:30;;;;;;;5.93;4.60;;;;;;;-140.79;100.00;63287.88;4790212;30;20035;-80
2021/07/06 03:10:56;;;;;;;5.55;4.70;;;;;;;-140.79;100.00;63287.88;4789217;30;20058;-80
2021/07/06 03:13:21;;;;;;;7.85;5.20;;;;;;;-140.79;100.00;63287.88;4775699;30;20027;-81
2021/07/06 03:15:46;;;;;;;6.18;4.65;;;;;;;-140.79;100.00;63287.88;4786213;30;20043;-81
2021/07/06 03:18:12;;;;;;;8.13;4.82;;;;;;;-140.79;100.00;63287.88;4770997;30;20066;-81
2021/07/06 03:20:38;;;;;;;11.40;5.15;;;;;;;-140.79;100.00;63287.88;4785035;30;20031;-81
2021/07/06 03:23:04;;;;;;;6.88;4.90;;;;;;;-140.79;100.00;63287.88;4771499;30;20105;-80
2021/07/06 03:25:29;;;;;;;6.53;4.50;;;;;;;-140.79;100.00;63287.88;4786132;30;20036;-78
2021/07/06 03:27:55;;;;;;;8.23;4.50;;;;;;;-140.79;100.00;63287.88;4769941;30;20036;-77
2021/07/06 03:30:24;;;;;;;7.18;4.95;;;;;;;-140.79;100.00;63287.88;4770005;30;20031;-79
2021/07/06 03:32:51;;;;;;;6.13;5.18;;;;;;;-140.79;100.00;63287.88;4781760;30;20038;-75
2021/07/06 03:35:16;;;;;;;6.25;5.00;;;;;;;-140.79;100.00;63287.88;4773640;29;20452;-85
2021/07/06 03:37:42;;;;;;;6.50;4.88;;;;;;;-140.79;100.00;63287.88;4772253;30;20035;-76
2021/07/06 03:40:08;;;;;;;7.32;4.88;;;;;;;-140.79;100.00;63287.88;4774078;29;20135;-76
2021/07/06 03:42:34;;;;;;;8.75;5.32;;;;;;;-140.79;100.00;63287.88;4796754;29;20035;-78
2021/07/06 03:44:59;;;;;;;7.10;4.88;;;;;;;-140.79;100.00;63287.88;4770783;30;20157;-76
2021/07/06 03:47:24;;;;;;;9.32;5.13;;;;;;;-140.79;100.00;63287.88;4774951;30;20023;-74
2021/07/06 03:49:50;;;;;;;7.57;5.05;;;;;;;-140.79;100.00;63287.88;4785795;30;20031;-75
2021/07/06 03:52:15;;;;;;;7.88;5.00;;;;;;;-140.79;100.00;63287.88;4785401;30;20261;-76
2021/07/06 03:54:41;;;;;;;7.00;4.78;;;;;;;-140.79;100.00;63287.88;4780054;29;20638;-78
2021/07/06 03:57:06;;;;;;;7.97;4.85;;;;;;;-140.79;100.00;63287.88;4769103;30;20469;-77
2021/07/06 03:59:32;;;;;;;8.60;5.25;;;;;;;-140.79;100.00;63287.88;4784850;29;20559;-76
2021/07/06 04:01:57;;;;;;;6.65;5.18;;;;;;;-140.79;100.00;63287.88;4789671;29;20035;-73
2021/07/06 04:04:24;;;;;;;7.63;5.00;;;;;;;-140.79;100.00;63287.88;4787757;29;20135;-74
2021/07/06 04:06:49;;;;;;;7.55;5.28;;;;;;;-140.79;100.00;63287.88;4788463;29;20404;-77
2021/07/06 04:09:14;;;;;;;7.22;5.35;;;;;;;-140.79;100.00;63287.88;4794431;29;20038;-76
2021/07/06 04:11:40;;;;;;;7.68;5.18;;;;;;;-140.79;100.00;63287.88;4798963;29;20119;-77
2021/07/06 04:14:06;;;;;;;6.47;5.28;;;;;;;-140.79;100.00;63287.88;4797572;29;21349;-76
2021/07/06 04:16:31;;;;;;;7.53;5.40;;;;;;;-140.79;100.00;63287.88;4799239;29;20233;-73
2021/07/06 04:18:56;;;;;;;9.07;5.65;;;;;;;-140.79;100.00;63287.88;4800984;29;20048;-77
2021/07/06 04:21:22;;;;;;;7.85;5.20;;;;;;;-140.79;100.00;63287.88;4796221;29;20185;-76
2021/07/06 04:23:47;;;;;;;6.88;5.55;;;;;;;-140.79;100.00;63287.88;4794963;29;20031;-74
2021/07/06 04:26:13;;;;;;;8.70;6.10;;;;;;;-140.79;100.00;63287.88;4792170;29;20031;-75
2021/07/06 04:28:38;;;;;;;10.25;5.72;;;;;;;-140.79;100.00;63287.88;4788755;29;20031;-75
2021/07/06 04:31:04;;;;;;;9.27;5.28;;;;;;;-140.79;100.00;63287.88;4785169;30;20034;-78
2021/07/06 04:33:30;;;;;;;10.18;6.07;;;;;;;-140.79;100.00;63287.88;4778441;30;20019;-89
2021/07/06 04:35:55;;;;;;;7.53;5.15;;;;;;;-140.79;100.00;63287.88;4751938;30;20034;-79
2021/07/06 04:38:20;;;;;;;8.10;5.00;;;;;;;-140.79;100.00;63287.88;4776554;30;20024;-74
2021/07/06 04:40:46;;;;;;;7.90;5.35;;;;;;;-140.79;100.00;63287.88;4785531;29;20522;-74
2021/07/06 04:43:12;;;;;;;8.88;5.00;;;;;;;-140.79;100.00;63287.88;4789558;29;20074;-73
2021/07/06 04:45:37;;;;;;;7.43;5.07;;;;;;;-140.79;100.00;63287.88;4794665;29;20046;-78
2021/07/06 04:48:03;;;;;;;7.35;5.03;;;;;;;-140.79;100.00;63287.88;4813883;29;20022;-72
2021/07/06 04:50:29;;;;;;;6.47;5.32;;;;;;;-140.79;100.00;63287.88;4815200;29;20077;-75
2021/07/06 04:52:55;;;;;;;7.80;5.07;;;;;;;-140.79;100.00;63287.88;4779737;30;20036;-71
2021/07/06 04:55:20;;;;;;;7.97;5.10;;;;;;;-140.79;100.00;63287.88;4776006;30;20023;-73
2021/07/06 04:57:46;;;;;;;7.72;5.32;;;;;;;-140.79;100.00;63287.88;4752601;30;20543;-76
2021/07/06 05:00:12;;;;;;;7.63;5.13;;;;;;;-140.79;100.00;63287.88;4779329;29;20035;-74
2021/07/06 05:02:38;;;;;;;7.97;5.30;;;;;;;-140.79;100.00;63287.88;4795420;29;20039;-74
2021/07/06 05:05:04;;;;;;;6.90;5.10;;;;;;;-140.79;100.00;63287.88;4781492;29;20041;-83
2021/07/06 05:07:30;;;;;;;7.10;5.30;;;;;;;-140.79;100.00;63287.88;4746012;29;20039;-80
2021/07/06 05:09:55;;;;;;;7.40;5.18;;;;;;;-140.79;100.00;63287.88;4792499;29;20042;-83
2021/07/06 05:12:21;;;;;;;9.65;6.63;;;;;;;-140.79;100.00;63287.88;4755983;29;20225;-79
2021/07/06 05:14:46;;;;;;;8.55;5.70;;;;;;;-140.79;100.00;63287.88;4795461;29;20411;-72
2021/07/06 05:17:12;;;;;;;10.35;5.60;;;;;;;-140.79;100.00;63287.88;4793618;29;20486;-76
2021/07/06 05:19:37;;;;;;;7.43;5.30;;;;;;;-140.79;100.00;63287.88;4796480;29;20046;-76
2021/07/06 05:22:03;;;;;;;7.20;5.68;;;;;;;-140.79;100.00;63287.88;4800581;29;20030;-73
2021/07/06 05:24:28;;;;;;;7.38;5.25;;;;;;;-140.79;100.00;63287.88;4802263;29;20038;-74
2021/07/06 05:26:54;;;;;;;7.65;5.72;;;;;;;-140.79;100.00;63287.88;4800761;29;20418;-73
2021/07/06 05:29:19;;;;;;;15.15;5.60;;;;;;;-140.79;100.00;63287.88;4797183;29;20092;-74
2021/07/06 05:31:45;;;;;;;7.22;5.35;;;;;;;-140.79;100.00;63287.88;4799258;29;20095;-75
2021/07/06 05:34:10;;;;;;;7.72;5.47;;;;;;;-140.79;100.00;63287.88;4796754;29;20023;-77
2021/07/06 05:36:36;;;;;;;7.90;5.55;;;;;;;-140.79;100.00;63287.88;4801132;29;20034;-77
2021/07/06 05:39:01;;;;;;;9.45;5.88;;;;;;;-140.79;100.00;63287.88;4783333;29;20026;-74
2021/07/06 05:41:27;;;;;;;7.88;5.78;;;;;;;-140.79;100.00;63287.88;4797328;29;20027;-74
2021/07/06 05:43:52;;;;;;;7.85;5.65;;;;;;;-140.79;100.00;63287.88;4791762;29;20803;-72
2021/07/06 05:46:18;;;;;;;8.23;6.30;;;;;;;-140.79;100.00;63287.88;4760614;30;20042;-74
2021/07/06 05:48:44;;;;;;;8.00;5.65;;;;;;;-140.79;100.00;63287.88;4766769;30;20035;-71
2021/07/06 05:51:10;;;;;;;8.43;5.47;;;;;;;-140.79;100.00;63287.88;4767222;30;20042;-76
2021/07/06 05:53:35;;;;;;;8.00;5.95;;;;;;;-140.79;100.00;63287.88;4770514;30;20036;-81
2021/07/06 05:56:01;;;;;;;8.23;6.10;;;;;;;-140.79;100.00;63287.88;4768474;30;20032;-72
2021/07/06 05:58:26;;;;;;;8.07;5.47;;;;;;;-140.79;100.00;63287.88;4767408;30;20516;-73
2021/07/06 06:00:52;;;;;;;7.55;5.90;;;;;;;-140.79;100.00;63287.88;4784899;29;20038;-70
2021/07/06 06:03:17;;;;;;;8.93;5.75;;;;;;;-140.79;100.00;63287.88;4795951;29;20059;-80
2021/07/06 06:05:43;;;;;;;8.52;6.00;;;;;;;-140.79;100.00;63287.88;4782095;29;20040;-70
2021/07/06 06:08:08;;;;;;;9.95;6.13;;;;;;;-140.79;100.00;63287.88;4790909;29;20030;-70
2021/07/06 06:10:34;;;;;;;8.35;6.40;;;;;;;-140.79;100.00;63287.88;4784670;29;20048;-82
2021/07/06 06:12:59;;;;;;;8.38;5.95;;;;;;;-140.79;100.00;63287.88;4786815;30;20498;-82
2021/07/06 06:15:25;;;;;;;8.50;6.05;;;;;;;-140.79;100.00;63287.88;4784415;30;20037;-75
2021/07/06 06:17:50;;;;;;;8.13;5.57;;;;;;;-140.79;100.00;63287.88;4790235;29;20039;-74
2021/07/06 06:20:16;;;;;;;8.15;6.22;;;;;;;-140.79;100.00;63287.88;4771348;30;20035;-75
2021/07/06 06:22:41;;;;;;;6.55;5.85;;;;;;;-140.79;100.00;63287.88;4786557;30;20035;-75
2021/07/06 06:25:07;;;;;;;8.32;5.80;;;;;;;-140.79;100.00;63287.88;4773318;29;20031;-75
2021/07/06 06:27:33;;;;;;;7.63;6.00;;;;;;;-140.79;100.00;63287.88;4786655;29;20038;-76
2021/07/06 06:29:58;;;;;;;8.65;5.75;;;;;;;-140.79;100.00;63287.88;4784838;30;20031;-76
2021/07/06 06:32:24;;;;;;;8.43;6.10;;;;;;;-140.79;100.00;63287.88;4782443;30;20030;-75
2021/07/06 06:34:51;;;;;;;8.65;5.90;;;;;;;-140.79;100.00;63287.88;4786933;30;20016;-75
2021/07/06 06:37:16;;;;;;;7.90;6.18;;;;;;;-140.79;100.00;63287.88;4773121;30;20023;-75
2021/07/06 06:39:42;;;;;;;8.10;6.50;;;;;;;-140.79;100.00;63287.88;4781100;30;20096;-75
2021/07/06 06:42:08;;;;;;;8.95;5.90;;;;;;;-140.79;100.00;63287.88;4800524;29;20096;-76
2021/07/06 06:44:33;;;;;;;6.97;5.50;;;;;;;-140.79;100.00;63287.88;4805005;29;20096;-75
2021/07/06 06:46:59;;;;;;;7.20;5.70;;;;;;;-140.79;100.00;63287.88;4771565;30;20469;-75
2021/07/06 06:49:24;;;;;;;8.38;5.70;;;;;;;-140.79;100.00;63287.88;4775858;30;20147;-76
2021/07/06 06:51:50;;;;;;;9.27;6.35;;;;;;;-140.79;100.00;63287.88;4777696;30;20047;-74
2021/07/06 06:54:16;;;;;;;6.60;5.65;;;;;;;-140.79;100.00;63287.88;4773405;29;20030;-74
2021/07/06 06:56:43;;;;;;;8.15;5.53;;;;;;;-140.79;100.00;63287.88;4788573;29;20035;-75
2021/07/06 06:59:08;;;;;;;6.32;5.68;;;;;;;-140.79;100.00;63287.88;4781652;30;20570;-75
2021/07/06 07:01:34;;;;;;;6.80;5.75;;;;;;;-140.79;100.00;63287.88;4788778;30;20045;-76
2021/07/06 07:04:01;;;;;;;9.27;6.22;;;;;;;-140.79;100.00;63287.88;4791820;29;20047;-75
2021/07/06 07:06:26;;;;;;;7.40;5.40;;;;;;;-140.79;100.00;63287.88;4806729;29;20037;-74
2021/07/06 07:08:52;;;;;;;7.05;5.85;;;;;;;-140.79;100.00;63287.88;4802482;29;20031;-76
2021/07/06 07:11:17;;;;;;;7.57;5.78;;;;;;;-140.79;100.00;63287.88;4799208;29;20038;-76
2021/07/06 07:13:43;;;;;;;8.15;5.63;;;;;;;-140.79;100.00;63287.88;4804219;29;20654;-76
2021/07/06 07:16:08;;;;;;;6.78;5.30;;;;;;;-140.79;100.00;63287.88;4796368;29;20035;-75
2021/07/06 07:18:34;;;;;;;6.32;5.45;;;;;;;-140.79;100.00;63287.88;4801495;29;20031;-75
2021/07/06 07:20:59;;;;;;;8.75;5.53;;;;;;;-140.79;100.00;63287.88;4806203;29;20030;-76
2021/07/06 07:23:25;;;;;;;7.00;5.18;;;;;;;-140.79;100.00;63287.88;4803150;29;20038;-74
2021/07/06 07:25:50;;;;;;;7.97;5.55;;;;;;;-140.79;100.00;63287.88;4777675;29;20023;-74
2021/07/06 07:28:15;;;;;;;6.88;5.40;;;;;;;-140.79;100.00;63287.88;4804859;29;20030;-75
2021/07/06 07:30:41;;;;;;;7.50;5.25;;;;;;;-140.79;100.00;63287.88;4804122;29;20743;-75
2021/07/06 07:33:06;;;;;;;6.00;4.93;;;;;;;-140.79;100.00;63287.88;4803788;29;20035;-73
2021/07/06 07:35:32;;;;;;;8.90;5.57;;;;;;;-140.79;100.00;63287.88;4803819;29;20034;-74
2021/07/06 07:37:57;;;;;;;6.22;4.82;;;;;;;-140.79;100.00;63287.88;4786867;29;20039;-74
2021/07/06 07:40:23;;;;;;;7.45;5.50;;;;;;;-140.79;100.00;63287.88;4782721;29;20046;-74
2021/07/06 07:42:48;;;;;;;7.15;5.35;;;;;;;-140.79;100.00;63287.88;4785795;30;20042;-74
2021/07/06 07:45:14;;;;;;;6.70;4.90;;;;;;;-140.79;100.00;63287.88;4767365;30;20035;-74
2021/07/06 07:47:39;;;;;;;7.32;4.85;;;;;;;-140.79;100.00;63287.88;4788972;30;20053;-73
2021/07/06 07:50:05;;;;;;;6.07;5.10;;;;;;;-140.79;100.00;63287.88;4787985;30;20042;-74
2021/07/06 07:52:35;;;;;;;5.40;4.90;;;;;;;-140.79;100.00;63287.88;4799337;29;20114;-74
2021/07/06 07:55:01;;;;;;;8.93;5.55;;;;;;;-140.79;100.00;63287.88;4806643;29;20034;-75
2021/07/06 07:57:27;;;;;;;9.40;5.03;;;;;;;-140.79;100.00;63287.88;4805759;29;20043;-73
2021/07/06 07:59:53;;;;;;;6.57;4.65;;;;;;;-140.79;100.00;63287.88;4805097;29;20517;-74
2021/07/06 08:02:18;;;;;;;6.38;4.90;;;;;;;-140.79;100.00;63287.88;4805554;29;20473;-72
2021/07/06 08:04:44;;;;;;;5.95;4.85;;;;;;;-140.79;100.00;63287.88;4805219;29;20058;-74
2021/07/06 08:07:10;;;;;;;5.05;4.50;;;;;;;-140.79;100.00;63287.88;4803493;29;20516;-76
2021/07/06 08:09:36;;;;;;;6.20;4.75;;;;;;;-140.79;100.00;63287.88;4787752;29;20034;-75
2021/07/06 08:12:02;;;;;;;6.78;4.20;;;;;;;-140.79;100.00;63287.88;4789112;29;20039;-75
2021/07/06 08:14:28;;;;;;;7.68;5.15;;;;;;;-140.79;100.00;63287.88;4788353;29;20134;-75
2021/07/06 08:16:54;;;;;;;8.10;4.47;;;;;;;-140.79;100.00;63287.88;4790851;29;20027;-76
2021/07/06 08:19:20;;;;;;;7.50;4.75;;;;;;;-140.79;100.00;63287.88;4786166;30;20492;-74
2021/07/06 08:21:45;;;;;;;6.47;4.38;;;;;;;-140.79;100.00;63287.88;4786576;30;20035;-73
2021/07/06 08:24:11;;;;;;;7.10;4.65;;;;;;;-140.79;100.00;63287.88;4804264;29;20064;-76
2021/07/06 08:26:36;;;;;;;6.10;4.28;;;;;;;-140.79;100.00;63287.88;4814101;29;20028;-75
2021/07/06 08:29:03;;;;;;;5.72;4.05;;;;;;;-140.79;100.00;63287.88;4789044;29;20035;-76
2021/07/06 08:31:29;;;;;;;6.20;4.28;;;;;;;-140.79;100.00;63287.88;4800061;29;20042;-76
2021/07/06 08:33:54;;;;;;;5.03;4.43;;;;;;;-140.79;100.00;63287.88;4799866;29;20466;-78
2021/07/06 08:36:19;;;;;;;5.75;4.00;;;;;;;-140.79;100.00;63287.88;4780987;30;20388;-76
2021/07/06 08:38:45;;;;;;;4.90;3.95;;;;;;;-140.79;100.00;63287.88;4791869;30;20063;-78
2021/07/06 08:41:11;;;;;;;5.55;4.53;;;;;;;-140.79;100.00;63287.88;4787980;30;20586;-77
2021/07/06 08:43:37;;;;;;;6.93;4.68;;;;;;;-140.79;100.00;63287.88;4766193;29;20046;-78
2021/07/06 08:46:03;;;;;;;5.68;4.70;;;;;;;-140.79;100.00;63287.88;4773064;29;20159;-78
2021/07/06 08:48:33;;;;;;;5.40;4.10;;;;;;;-140.79;100.00;63287.88;4789084;29;20038;-77
2021/07/06 08:50:59;;;;;;;5.80;4.30;;;;;;;-140.79;100.00;63287.88;4804281;29;20187;-77
2021/07/06 08:53:25;;;;;;;6.88;4.20;;;;;;;-140.79;100.00;63287.88;4790366;29;20030;-78
2021/07/06 08:55:51;;;;;;;7.50;4.53;;;;;;;-140.79;100.00;63287.88;4802702;29;20029;-77
2021/07/06 08:58:17;;;;;;;4.75;4.25;;;;;;;-140.79;100.00;63287.88;4804749;29;20495;-78
2021/07/06 09:00:43;;;;;;;5.65;4.50;;;;;;;-140.79;100.00;63287.88;4803944;29;20045;-77
2021/07/06 09:03:09;;;;;;;5.57;4.15;;;;;;;-140.79;100.00;63287.88;4786613;29;20141;-78
2021/07/06 09:05:35;;;;;;;6.13;4.45;;;;;;;-140.79;100.00;63287.88;4802393;29;20023;-77
2021/07/06 09:08:01;;;;;;;6.00;4.47;;;;;;;-140.79;100.00;63287.88;4795196;29;20030;-75
2021/07/06 09:10:36;;;;;;;5.30;4.28;;;;;;;-140.79;100.00;63287.88;4797033;29;20595;-77
2021/07/06 09:13:10;;;;;;;5.00;4.32;;;;;;;-140.79;100.00;63287.88;4784308;30;20546;-76
2021/07/06 09:15:35;;;;;;;5.45;4.47;;;;;;;-140.79;100.00;63287.88;4769251;30;20091;-77
2021/07/06 09:18:17;;;;;;;5.28;4.25;;;;;;;-140.79;100.00;63287.88;4770804;30;20410;-77
2021/07/06 09:21:00;;;;;;;5.93;4.25;;;;;;;-140.79;100.00;63287.88;4802833;29;20073;-77
2021/07/06 09:23:34;;;;;;;5.47;4.00;;;;;;;-140.79;100.00;63287.88;4813500;29;20037;-80
2021/07/06 09:26:03;;;;;;;5.15;4.05;;;;;;;-140.79;100.00;63287.88;4789960;29;20030;-80
2021/07/06 09:28:31;;;;;;;6.68;4.47;;;;;;;-140.79;100.00;63287.88;4805525;29;20468;-80
2021/07/06 09:30:59;;;;;;;6.75;4.13;;;;;;;-140.79;100.00;63287.88;4802634;29;20500;-80
2021/07/06 09:33:26;;;;;;;6.45;4.40;;;;;;;-140.79;100.00;63287.88;4787529;29;20035;-81
2021/07/06 09:35:51;;;;;;;5.25;4.47;;;;;;;-140.79;100.00;63287.88;4800185;29;20058;-82
2021/07/06 09:38:18;;;;;;;8.43;4.30;;;;;;;-140.79;100.00;63287.88;4802410;29;20079;-86
2021/07/06 09:40:43;;;;;;;4.70;3.65;;;;;;;-140.79;100.00;63287.88;4800327;29;20030;-80
2021/07/06 09:43:13;;;;;;;5.10;4.32;;;;;;;-140.79;100.00;63287.88;4784681;29;20042;-80
2021/07/06 09:45:38;;;;;;;5.55;3.90;;;;;;;-140.79;100.00;63287.88;4801265;29;20529;-80
2021/07/06 09:48:07;;;;;;;7.25;4.10;;;;;;;-140.79;100.00;63287.88;4800161;29;20038;-80
2021/07/06 09:50:33;;;;;;;5.82;4.10;;;;;;;-140.79;100.00;63287.88;4801526;29;20097;-80
2021/07/06 09:53:00;;;;;;;5.75;4.30;;;;;;;-140.79;100.00;63287.88;4801676;29;20030;-80
2021/07/06 09:55:32;;;;;;;4.63;4.03;;;;;;;-140.79;100.00;63287.88;4801098;29;20018;-81
2021/07/06 09:57:57;;;;;;;7.20;4.45;;;;;;;-140.79;100.00;63287.88;4802980;29;20108;-80
2021/07/06 10:00:23;;;;;;;5.88;4.05;;;;;;;-140.79;100.00;63287.88;4782203;29;20072;-80
2021/07/06 10:02:48;;;;;;;5.22;4.13;;;;;;;-140.79;100.00;63287.88;4768627;30;20055;-80
2021/07/06 10:05:18;;;;;;;5.93;3.90;;;;;;;-140.79;100.00;63287.88;4767723;30;20042;-81
2021/07/06 10:07:44;;;;;;;4.53;3.50;;;;;;;-140.79;100.00;63287.88;4796865;29;20039;-80
2021/07/06 10:10:12;;;;;;;6.38;3.97;;;;;;;-140.79;100.00;63287.88;4802413;29;20522;-80
2021/07/06 10:12:38;;;;;;;5.15;4.00;;;;;;;-140.79;100.00;63287.88;4799505;29;20061;-80
2021/07/06 10:15:05;;;;;;;5.32;3.85;;;;;;;-140.79;100.00;63287.88;4786747;29;20086;-81
2021/07/06 10:17:31;;;;;;;5.40;4.03;;;;;;;-140.79;100.00;63287.88;4799064;29;20034;-81
2021/07/06 10:19:56;;;;;;;5.63;3.95;;;;;;;-140.79;100.00;63287.88;4802697;29;20023;-80
2021/07/06 10:22:22;;;;;;;4.90;4.00;;;;;;;-140.79;100.00;63287.88;4784128;29;20038;-80
2021/07/06 10:24:47;;;;;;;5.78;4.22;;;;;;;-140.79;100.00;63287.88;4767225;30;20039;-80
2021/07/06 10:27:21;;;;;;;4.20;3.80;;;;;;;-140.79;100.00;63287.88;4767713;30;20035;-81
2021/07/06 10:29:47;;;;;;;4.50;3.65;;;;;;;-140.79;100.00;63287.88;4754842;30;20499;-81
2021/07/06 10:32:41;;;;;;;5.15;3.90;;;;;;;-140.79;100.00;63287.88;4768468;30;20040;-82
2021/07/06 10:35:08;;;;;;;5.20;4.15;;;;;;;-140.79;100.00;63287.88;4768738;30;20047;-80
2021/07/06 10:37:34;;;;;;;4.28;3.80;;;;;;;-140.79;100.00;63287.88;4783365;29;20031;-80
2021/07/06 10:40:31;;;;;;;4.00;3.60;;;;;;;-140.79;100.00;63287.88;4784926;29;20042;-81
2021/07/06 10:42:57;;;;;;;6.28;3.60;;;;;;;-140.79;100.00;63287.88;4765187;29;20061;-80
2021/07/06 10:45:33;;;;;;;5.53;3.70;;;;;;;-140.79;100.00;63287.88;4785266;29;20035;-81
2021/07/06 10:47:58;;;;;;;5.13;3.95;;;;;;;-140.79;100.00;63287.88;4787288;29;20031;-80
2021/07/06 10:50:27;;;;;;;5.05;4.00;;;;;;;-140.79;100.00;63287.88;4802708;29;20093;-87
2021/07/06 10:53:14;;;;;;;4.90;3.70;;;;;;;-140.79;100.00;63287.88;4789697;29;20039;-83
2021/07/06 10:55:39;;;;;;;5.93;3.65;;;;;;;-140.79;100.00;63287.88;4791612;29;20419;-76
2021/07/06 10:58:05;;;;;;;4.97;3.60;;;;;;;-140.79;100.00;63287.88;4795685;29;20041;-76
2021/07/06 11:00:43;;;;;;;4.75;3.65;;;;;;;-140.79;100.00;63287.88;4791725;29;20035;-76
2021/07/06 11:03:18;;;;;;;6.72;3.55;;;;;;;-140.79;100.00;63287.88;4808168;29;20061;-77
2021/07/06 11:05:43;;;;;;;5.90;3.80;;;;;;;-140.79;100.00;63287.88;4783013;29;20027;-75